Time;durP1;ratioP1;P1;durP2;ratioP2;P2;SDS_P1;SDS_P2;PMS_P1;PMS_P2;Temp;Humidity;BMP_temperature;BMP_pressure;BME280_temperature;BME280_humidity;BME280_pressure;Samples;Min_cycle;Max_cycle;Signal;HPM_P1;HPM_P2
2021/12/15 00:02:07;;;;;;;16.27;9.13;;;1.00;99.90;;;;;;4996918;28;20049;-84
2021/12/15 00:04:33;;;;;;;14.93;8.25;;;1.00;99.90;;;;;;5014743;28;20409;-85
2021/12/15 00:06:59;;;;;;;14.25;7.80;;;1.00;99.90;;;;;;5014834;28;20034;-85
2021/12/15 00:09:26;;;;;;;15.70;7.97;;;1.00;99.90;;;;;;4997559;28;20026;-85
2021/12/15 00:11:52;;;;;;;14.15;7.38;;;1.00;99.90;;;;;;4996975;28;20092;-84
2021/12/15 00:14:19;;;;;;;14.77;8.45;;;1.00;99.90;;;;;;4996619;28;20034;-84
2021/12/15 00:16:46;;;;;;;18.27;9.02;;;1.10;99.90;;;;;;5014528;28;20038;-84
2021/12/15 00:19:12;;;;;;;19.13;9.57;;;1.10;99.90;;;;;;5013228;28;20187;-84
2021/12/15 00:21:38;;;;;;;17.13;9.20;;;1.00;99.90;;;;;;5053817;28;20068;-85
2021/12/15 00:24:06;;;;;;;15.73;8.45;;;1.00;99.90;;;;;;5054137;28;20032;-86
2021/12/15 00:26:34;;;;;;;18.08;9.18;;;1.00;99.90;;;;;;5036846;28;20356;-87
2021/12/15 00:29:02;;;;;;;16.77;8.93;;;1.00;99.90;;;;;;5036117;28;20540;-90
2021/12/15 00:31:30;;;;;;;16.48;8.65;;;1.00;99.90;;;;;;5037364;28;20079;-89
2021/12/15 00:33:56;;;;;;;18.08;9.07;;;1.00;99.90;;;;;;5019428;28;20080;-89
2021/12/15 00:36:22;;;;;;;16.80;8.68;;;1.00;99.90;;;;;;5053815;28;20094;-89
2021/12/15 00:38:49;;;;;;;14.50;8.00;;;1.00;99.90;;;;;;5036257;28;20421;-89
2021/12/15 00:41:16;;;;;;;14.60;8.00;;;1.10;99.90;;;;;;5052103;28;20044;-87
2021/12/15 00:43:43;;;;;;;18.30;8.55;;;1.10;99.90;;;;;;5054612;28;20064;-88
2021/12/15 00:46:09;;;;;;;16.42;8.77;;;1.10;99.90;;;;;;5066361;28;20079;-88
2021/12/15 00:48:35;;;;;;;17.13;8.77;;;1.10;99.90;;;;;;5036607;28;20037;-88
2021/12/15 00:51:02;;;;;;;17.67;8.88;;;1.10;99.90;;;;;;5035765;28;20033;-87
2021/12/15 00:53:28;;;;;;;14.27;7.55;;;1.10;99.90;;;;;;5054608;28;20120;-89
2021/12/15 00:55:55;;;;;;;16.05;8.38;;;1.10;99.90;;;;;;5037009;28;20037;-88
2021/12/15 00:58:20;;;;;;;15.45;7.97;;;1.20;99.90;;;;;;5036268;28;20067;-88
2021/12/15 01:00:51;;;;;;;15.20;7.80;;;1.10;99.90;;;;;;5036100;28;20064;-88
2021/12/15 01:03:17;;;;;;;14.00;7.78;;;1.20;99.90;;;;;;5036185;28;20053;-89
2021/12/15 01:05:46;;;;;;;12.85;7.00;;;1.20;99.90;;;;;;5035676;28;20083;-88
2021/12/15 01:08:17;;;;;;;13.05;7.57;;;1.20;99.90;;;;;;5053606;28;20036;-89
2021/12/15 01:11:49;;;;;;;14.43;7.85;;;1.20;99.90;;;;;;5035491;28;20037;-88
2021/12/15 01:21:53;;;;;;;15.80;8.02;;;1.20;99.90;;;;;;5054165;28;20486;-87
2021/12/15 01:24:22;;;;;;;15.98;8.07;;;1.20;99.90;;;;;;5036434;28;20040;-87
2021/12/15 01:26:48;;;;;;;14.20;7.72;;;1.20;99.90;;;;;;5036204;28;20064;-87
2021/12/15 01:29:14;;;;;;;13.68;7.78;;;1.20;99.90;;;;;;5054988;28;20471;-86
2021/12/15 01:31:40;;;;;;;15.20;7.93;;;1.20;99.90;;;;;;5035226;28;20087;-87
2021/12/15 01:34:05;;;;;;;14.18;7.40;;;1.20;99.90;;;;;;5020626;28;20460;-88
2021/12/15 01:36:31;;;;;;;15.48;7.82;;;1.20;99.90;;;;;;5037644;28;20048;-88
2021/12/15 01:38:57;;;;;;;14.07;7.22;;;1.20;99.90;;;;;;5019707;28;20467;-89
2021/12/15 01:41:23;;;;;;;14.88;7.70;;;1.20;99.90;;;;;;5027019;28;20514;-88
2021/12/15 01:49:37;;;;;;;14.23;7.97;;;1.20;99.90;;;;;;5039890;28;20034;-88
2021/12/15 01:52:37;;;;;;;12.93;7.30;;;1.20;99.90;;;;;;5021050;28;20038;-88
2021/12/15 01:55:12;;;;;;;13.98;7.40;;;1.20;99.90;;;;;;4979023;28;20072;-88
2021/12/15 01:57:39;;;;;;;16.08;7.00;;;1.20;99.90;;;;;;5019273;28;20040;-87
2021/12/15 02:00:21;;;;;;;11.18;6.70;;;1.20;99.90;;;;;;5019419;28;20037;-87
2021/12/15 02:02:50;;;;;;;10.48;6.20;;;1.20;99.90;;;;;;5019289;28;20049;-88
2021/12/15 02:05:17;;;;;;;12.75;7.28;;;1.30;99.90;;;;;;5036207;28;20068;-88
2021/12/15 02:07:45;;;;;;;12.10;7.18;;;1.20;99.90;;;;;;5019148;28;20110;-87
2021/12/15 02:10:13;;;;;;;12.27;6.57;;;1.20;99.90;;;;;;5036383;28;20048;-87
2021/12/15 02:12:42;;;;;;;10.88;6.40;;;1.20;99.90;;;;;;5018800;28;20479;-88
2021/12/15 02:15:25;;;;;;;10.80;5.78;;;1.20;99.90;;;;;;5018763;28;20072;-88
2021/12/15 02:17:51;;;;;;;11.32;6.40;;;1.20;99.90;;;;;;5002293;28;20392;-86
2021/12/15 02:20:20;;;;;;;11.02;6.57;;;1.20;99.90;;;;;;5036542;28;20123;-88
2021/12/15 02:22:46;;;;;;;10.45;6.13;;;1.20;99.90;;;;;;5018920;28;20037;-89
2021/12/15 02:25:14;;;;;;;11.82;6.53;;;1.20;99.90;;;;;;5018747;28;20030;-88
2021/12/15 02:27:41;;;;;;;9.27;5.82;;;1.20;99.90;;;;;;5036298;28;20045;-86
2021/12/15 02:38:40;;;;;;;10.07;5.75;;;1.20;99.90;;;;;;5036435;28;20056;-89
2021/12/15 02:41:12;;;;;;;11.65;5.97;;;1.20;99.90;;;;;;5018773;28;20180;-87
2021/12/15 02:43:38;;;;;;;10.18;5.55;;;1.20;99.90;;;;;;5019814;28;20042;-88
2021/12/15 02:46:05;;;;;;;12.13;6.53;;;1.20;99.90;;;;;;5018868;28;20057;-88
2021/12/15 02:48:32;;;;;;;10.60;5.75;;;1.20;99.90;;;;;;5020740;28;20042;-88
2021/12/15 02:50:58;;;;;;;10.95;6.03;;;1.20;99.90;;;;;;5021172;28;20052;-86
2021/12/15 02:53:24;;;;;;;12.88;6.35;;;1.20;99.90;;;;;;5021616;28;20040;-87
2021/12/15 02:55:50;;;;;;;11.10;6.45;;;1.20;99.90;;;;;;5018337;28;20376;-87
2021/12/15 02:58:19;;;;;;;13.05;6.65;;;1.20;99.90;;;;;;5036267;28;20036;-87
2021/12/15 03:00:57;;;;;;;12.57;6.35;;;1.30;99.90;;;;;;5018454;28;20045;-87
2021/12/15 03:06:25;;;;;;;11.93;6.57;;;1.30;99.90;;;;;;5036438;28;20037;-87
2021/12/15 03:09:05;;;;;;;15.20;6.60;;;1.30;99.90;;;;;;5034930;28;20467;-87
2021/12/15 03:17:00;;;;;;;15.18;6.93;;;1.30;99.90;;;;;;5037129;28;20543;-86
2021/12/15 03:19:25;;;;;;;17.83;8.00;;;1.30;99.90;;;;;;5017544;28;20056;-86
2021/12/15 03:21:51;;;;;;;13.35;7.85;;;1.30;99.90;;;;;;5018656;28;20063;-86
2021/12/15 03:24:20;;;;;;;15.18;7.50;;;1.20;99.90;;;;;;5018602;28;20044;-85
2021/12/15 03:27:06;;;;;;;13.75;6.97;;;1.30;99.90;;;;;;5022906;28;20040;-87
2021/12/15 03:37:47;;;;;;;12.68;6.40;;;1.30;99.90;;;;;;5036895;28;20120;-87
2021/12/15 03:40:22;;;;;;;12.50;6.47;;;1.30;99.90;;;;;;5032440;28;20042;-87
2021/12/15 03:42:58;;;;;;;13.15;6.80;;;1.30;99.90;;;;;;5017822;28;20049;-88
2021/12/15 03:45:29;;;;;;;12.00;6.50;;;1.30;99.90;;;;;;5018541;28;20034;-88
2021/12/15 03:47:55;;;;;;;;;;;1.30;99.90;;;;;;5001864;28;20076;-89
2021/12/15 03:50:23;;;;;;;12.25;6.35;;;1.30;99.90;;;;;;4999051;28;19905;-87
2021/12/15 03:52:49;;;;;;;12.00;5.80;;;1.30;99.90;;;;;;5025963;28;20038;-87
2021/12/15 03:55:18;;;;;;;9.98;5.95;;;1.30;99.90;;;;;;5018072;28;20053;-87
2021/12/15 03:57:44;;;;;;;11.02;6.65;;;1.30;99.90;;;;;;5017580;28;20059;-87
2021/12/15 04:00:13;;;;;;;11.80;6.50;;;1.30;99.90;;;;;;5033041;28;20037;-89
2021/12/15 04:02:39;;;;;;;11.52;6.55;;;1.40;99.90;;;;;;5016704;28;20043;-88
2021/12/15 04:05:07;;;;;;;12.30;5.75;;;1.40;99.90;;;;;;5016724;28;20061;-88
2021/12/15 04:07:33;;;;;;;12.70;6.47;;;1.40;99.90;;;;;;5017056;28;20037;-88
2021/12/15 04:09:59;;;;;;;11.57;6.47;;;1.30;99.90;;;;;;5016935;28;20451;-90
2021/12/15 04:12:25;;;;;;;10.23;5.43;;;1.30;99.90;;;;;;5034366;28;20047;-88
2021/12/15 04:14:56;;;;;;;11.90;5.90;;;1.30;99.90;;;;;;5016736;28;20045;-88
2021/12/15 04:17:26;;;;;;;9.57;5.85;;;1.30;99.90;;;;;;5016953;28;20030;-89
2021/12/15 04:20:02;;;;;;;8.82;5.40;;;1.30;99.90;;;;;;5034634;28;20061;-88
2021/12/15 04:22:29;;;;;;;10.88;6.28;;;1.40;99.90;;;;;;5034938;28;20088;-87
2021/12/15 04:24:57;;;;;;;12.43;5.85;;;1.30;99.90;;;;;;5020302;28;20057;-87
2021/12/15 04:27:23;;;;;;;10.77;6.10;;;1.30;99.90;;;;;;5016789;28;20128;-87
2021/12/15 04:29:49;;;;;;;8.95;5.28;;;1.40;99.90;;;;;;5016888;28;20071;-87
2021/12/15 04:32:41;;;;;;;12.73;6.50;;;1.40;99.90;;;;;;5016704;28;20045;-88
2021/12/15 04:35:08;;;;;;;10.63;5.60;;;1.40;99.90;;;;;;5000150;28;20049;-88
2021/12/15 04:37:34;;;;;;;10.25;5.60;;;1.30;99.90;;;;;;5035867;28;20042;-87
2021/12/15 04:40:03;;;;;;;12.15;6.15;;;1.40;99.90;;;;;;5018515;28;20453;-87
2021/12/15 04:42:29;;;;;;;11.38;5.88;;;1.40;99.90;;;;;;5016696;28;20033;-87
2021/12/15 04:44:56;;;;;;;10.02;5.60;;;1.30;99.90;;;;;;5016844;28;20029;-87
2021/12/15 04:47:23;;;;;;;12.50;6.28;;;1.30;99.90;;;;;;5035093;28;20029;-87
2021/12/15 04:49:54;;;;;;;11.05;5.90;;;1.40;99.90;;;;;;5017152;28;20041;-88
2021/12/15 04:52:25;;;;;;;10.77;6.43;;;1.30;99.90;;;;;;5016547;28;20037;-88
2021/12/15 04:54:51;;;;;;;12.43;6.50;;;1.30;99.90;;;;;;5016247;28;20087;-86
2021/12/15 04:57:19;;;;;;;14.45;7.47;;;1.40;99.90;;;;;;5032241;28;20045;-88
2021/12/15 04:59:47;;;;;;;10.63;6.60;;;1.30;99.90;;;;;;5015329;28;20041;-85
2021/12/15 05:02:18;;;;;;;10.25;5.72;;;1.30;99.90;;;;;;5033562;28;20047;-84
2021/12/15 05:04:44;;;;;;;10.73;6.35;;;1.30;99.90;;;;;;5012294;28;20029;-85
2021/12/15 05:07:11;;;;;;;13.95;7.82;;;1.40;99.90;;;;;;5034650;28;20037;-86
2021/12/15 05:09:40;;;;;;;20.27;9.80;;;1.30;99.90;;;;;;5037225;28;20045;-87
2021/12/15 05:12:10;;;;;;;17.23;8.20;;;1.30;99.90;;;;;;5016720;28;20510;-84
2021/12/15 05:14:36;;;;;;;15.18;7.75;;;1.40;99.90;;;;;;5003987;28;20045;-84
2021/12/15 05:17:03;;;;;;;16.05;8.63;;;1.30;99.90;;;;;;5019874;28;20034;-86
2021/12/15 05:19:31;;;;;;;15.93;8.23;;;1.30;99.90;;;;;;5019041;28;20056;-82
2021/12/15 05:21:58;;;;;;;15.25;8.88;;;1.30;99.90;;;;;;5005006;28;20092;-84
2021/12/15 05:24:31;;;;;;;19.13;9.90;;;1.30;99.90;;;;;;5019662;28;20041;-81
2021/12/15 05:27:03;;;;;;;18.77;9.95;;;1.40;99.90;;;;;;5019199;28;20048;-84
2021/12/15 05:29:29;;;;;;;15.30;8.43;;;1.40;99.90;;;;;;5019492;28;20444;-84
2021/12/15 05:31:55;;;;;;;14.77;7.25;;;1.30;99.90;;;;;;5036407;28;20037;-85
2021/12/15 05:34:22;;;;;;;15.00;7.22;;;1.40;99.90;;;;;;5018296;28;20407;-84
2021/12/15 05:36:51;;;;;;;16.83;8.13;;;1.30;99.90;;;;;;5037233;28;20040;-85
2021/12/15 05:39:19;;;;;;;16.08;8.23;;;1.40;99.90;;;;;;5033330;28;20034;-84
2021/12/15 05:41:45;;;;;;;19.85;11.00;;;1.40;99.90;;;;;;5004846;28;20049;-86
2021/12/15 05:44:10;;;;;;;21.05;12.68;;;1.40;99.90;;;;;;5017925;28;20506;-84
2021/12/15 05:46:36;;;;;;;17.52;9.73;;;1.30;99.90;;;;;;5034794;28;20045;-81
2021/12/15 05:49:03;;;;;;;13.52;7.53;;;1.40;99.90;;;;;;5025929;28;20038;-83
2021/12/15 05:51:29;;;;;;;11.65;6.72;;;1.40;99.90;;;;;;5000500;28;20479;-82
2021/12/15 05:53:55;;;;;;;560.85;264.00;;;1.40;99.90;;;;;;5016799;28;20077;-86
2021/12/15 05:56:21;;;;;;;383.25;174.10;;;1.40;99.90;;;;;;5038244;28;20098;-82
2021/12/15 05:58:47;;;;;;;161.57;76.88;;;1.50;99.90;;;;;;5036446;28;20068;-84
2021/12/15 06:01:13;;;;;;;74.05;35.65;;;1.50;99.90;;;;;;5019714;28;20034;-84
2021/12/15 06:03:39;;;;;;;40.25;20.35;;;1.50;99.90;;;;;;5003694;28;20081;-83
2021/12/15 06:06:05;;;;;;;26.23;13.32;;;1.50;99.90;;;;;;5009910;28;20034;-83
2021/12/15 06:08:31;;;;;;;18.48;9.77;;;1.50;99.90;;;;;;5006861;28;20038;-84
2021/12/15 06:10:57;;;;;;;13.68;7.70;;;1.50;99.90;;;;;;5022896;28;20069;-84
2021/12/15 06:13:26;;;;;;;15.20;8.00;;;1.60;99.90;;;;;;5015186;28;20033;-84
2021/12/15 06:15:52;;;;;;;13.07;6.80;;;1.50;99.90;;;;;;4999064;28;20061;-84
2021/12/15 06:18:19;;;;;;;14.07;8.00;;;1.60;99.90;;;;;;4999010;28;20464;-82
2021/12/15 06:20:50;;;;;;;15.30;9.27;;;1.50;99.90;;;;;;4999020;28;20038;-83
2021/12/15 06:23:19;;;;;;;16.83;9.13;;;1.50;99.90;;;;;;4998284;28;20392;-82
2021/12/15 06:25:49;;;;;;;137.80;65.18;;;1.50;99.90;;;;;;5016270;28;20062;-82
2021/12/15 06:28:16;;;;;;;48.85;25.92;;;1.50;99.90;;;;;;5015266;28;20065;-82
2021/12/15 06:30:44;;;;;;;31.40;17.55;;;1.60;99.90;;;;;;4998810;28;20384;-82
2021/12/15 06:33:11;;;;;;;23.48;12.63;;;1.60;99.90;;;;;;5020652;28;20041;-82
2021/12/15 06:35:37;;;;;;;20.98;11.05;;;1.60;99.90;;;;;;5028081;28;20136;-82
2021/12/15 06:38:06;;;;;;;20.25;9.82;;;1.60;99.90;;;;;;5018418;28;20087;-82
2021/12/15 06:40:33;;;;;;;147.77;73.00;;;1.50;99.90;;;;;;5035771;28;20037;-85
2021/12/15 06:43:00;;;;;;;92.65;45.13;;;1.50;99.90;;;;;;5036121;28;20030;-83
2021/12/15 06:45:34;;;;;;;40.67;21.08;;;1.50;99.90;;;;;;5037122;28;20092;-83
2021/12/15 06:58:57;;;;;;;17.92;9.23;;;1.50;99.90;;;;;;5035722;28;20478;-82
2021/12/15 07:01:23;;;;;;;18.00;7.53;;;1.50;99.90;;;;;;5017255;28;20033;-82
2021/12/15 07:03:50;;;;;;;12.27;6.57;;;1.50;99.90;;;;;;5034969;28;20068;-83
2021/12/15 07:06:16;;;;;;;12.05;6.60;;;1.50;99.90;;;;;;5014080;28;20437;-84
2021/12/15 07:08:42;;;;;;;14.45;7.13;;;1.50;99.90;;;;;;5031190;28;20586;-83
2021/12/15 07:11:08;;;;;;;13.38;6.75;;;1.50;99.90;;;;;;5013782;28;20033;-84
2021/12/15 07:13:34;;;;;;;11.55;6.32;;;1.60;99.90;;;;;;5032195;28;20465;-83
2021/12/15 07:16:08;;;;;;;12.63;6.40;;;1.60;99.90;;;;;;5032030;28;20060;-83
2021/12/15 07:18:51;;;;;;;14.63;7.70;;;1.60;99.90;;;;;;5014749;28;20384;-84
2021/12/15 07:21:22;;;;;;;20.42;10.05;;;1.70;99.90;;;;;;5016679;28;20128;-83
2021/12/15 07:23:51;;;;;;;18.02;9.27;;;1.60;99.90;;;;;;5033879;28;20041;-83
2021/12/15 07:26:17;;;;;;;16.38;8.18;;;1.60;99.90;;;;;;5018027;28;20388;-83
2021/12/15 07:28:43;;;;;;;15.25;8.02;;;1.60;99.90;;;;;;5016864;28;20483;-84
2021/12/15 07:31:10;;;;;;;26.08;11.00;;;1.60;99.90;;;;;;5017211;28;20104;-82
2021/12/15 07:33:38;;;;;;;25.40;11.88;;;1.60;99.90;;;;;;5016887;28;20535;-83
2021/12/15 07:36:05;;;;;;;24.75;10.65;;;1.60;99.90;;;;;;5016400;28;20034;-83
2021/12/15 07:38:31;;;;;;;19.63;9.63;;;1.50;99.90;;;;;;5033170;28;20043;-83
2021/12/15 07:40:58;;;;;;;21.70;11.40;;;1.60;99.90;;;;;;5016678;28;20042;-83
2021/12/15 07:43:24;;;;;;;19.45;9.68;;;1.60;99.90;;;;;;5035366;28;20025;-85
2021/12/15 07:46:02;;;;;;;21.40;10.23;;;1.70;99.90;;;;;;5018311;28;20036;-84
2021/12/15 07:48:36;;;;;;;19.45;10.35;;;1.60;99.90;;;;;;5035887;28;20033;-84
2021/12/15 07:51:06;;;;;;;19.02;10.13;;;1.60;99.90;;;;;;5017371;28;20393;-84
2021/12/15 07:53:32;;;;;;;16.67;8.73;;;1.60;99.90;;;;;;5016703;28;20048;-84
2021/12/15 07:55:58;;;;;;;16.83;8.60;;;1.70;99.90;;;;;;5034312;28;20029;-84
2021/12/15 07:58:25;;;;;;;16.77;8.70;;;1.70;99.90;;;;;;5016764;28;20037;-84
2021/12/15 08:00:53;;;;;;;16.50;9.10;;;1.70;99.90;;;;;;5034096;28;20038;-84
2021/12/15 08:03:20;;;;;;;21.90;10.32;;;1.70;99.90;;;;;;5015620;28;20092;-84
2021/12/15 08:05:49;;;;;;;22.25;10.88;;;1.80;99.90;;;;;;5033166;28;20037;-84
2021/12/15 08:08:15;;;;;;;22.05;10.77;;;1.70;99.90;;;;;;5033913;28;20480;-84
2021/12/15 08:10:42;;;;;;;28.77;13.73;;;1.70;99.90;;;;;;5034266;28;20065;-84
2021/12/15 08:13:08;;;;;;;26.45;11.75;;;1.80;99.90;;;;;;5034332;28;20037;-84
2021/12/15 08:15:34;;;;;;;17.13;8.88;;;1.80;99.90;;;;;;5033675;28;20160;-84
2021/12/15 08:18:01;;;;;;;22.40;10.82;;;1.80;99.90;;;;;;5034068;28;20088;-83
2021/12/15 08:20:29;;;;;;;21.60;11.23;;;1.80;99.90;;;;;;5015930;28;20559;-83
2021/12/15 08:22:55;;;;;;;22.35;12.05;;;1.90;99.90;;;;;;5034166;28;20035;-84
2021/12/15 08:25:22;;;;;;;23.85;11.18;;;1.80;99.90;;;;;;5033981;28;20052;-84
2021/12/15 08:27:50;;;;;;;21.17;11.05;;;1.80;99.90;;;;;;5016394;28;20120;-84
2021/12/15 08:30:21;;;;;;;19.83;10.05;;;1.90;99.90;;;;;;5033843;28;20108;-82
2021/12/15 08:32:48;;;;;;;;;;;1.90;99.90;;;;;;5016424;28;20038;-83
2021/12/15 08:35:17;;;;;;;32.55;17.45;;;1.80;99.90;;;;;;5016040;28;20410;-83
2021/12/15 08:37:43;;;;;;;26.80;13.68;;;1.80;99.90;;;;;;5034483;28;20029;-84
2021/12/15 08:40:10;;;;;;;24.00;11.63;;;1.80;99.90;;;;;;5019198;28;20037;-83
2021/12/15 08:42:36;;;;;;;19.50;10.35;;;1.80;99.90;;;;;;5017338;28;20087;-83
2021/12/15 08:45:02;;;;;;;19.95;9.98;;;1.80;99.90;;;;;;5033999;28;20076;-82
2021/12/15 08:47:28;;;;;;;26.55;12.50;;;1.70;99.90;;;;;;5033762;28;20046;-83
2021/12/15 08:49:54;;;;;;;27.00;13.45;;;1.80;99.90;;;;;;5032139;28;20060;-83
2021/12/15 08:52:20;;;;;;;31.58;14.18;;;1.80;99.90;;;;;;5033614;28;20061;-83
2021/12/15 08:54:46;;;;;;;26.42;13.30;;;1.70;99.90;;;;;;5015940;28;20129;-83
2021/12/15 08:57:15;;;;;;;21.75;11.57;;;1.70;99.90;;;;;;5015467;28;20041;-83
2021/12/15 08:59:41;;;;;;;22.95;11.85;;;1.80;99.90;;;;;;5015356;28;20029;-84
2021/12/15 09:02:07;;;;;;;44.72;21.85;;;1.80;99.90;;;;;;5016027;28;20096;-83
2021/12/15 09:04:33;;;;;;;26.75;14.55;;;1.70;99.90;;;;;;5032319;28;20068;-83
2021/12/15 09:07:00;;;;;;;30.58;15.75;;;1.70;99.90;;;;;;5033444;28;20383;-83
2021/12/15 09:09:27;;;;;;;41.40;21.77;;;1.70;99.90;;;;;;5034783;28;20029;-83
2021/12/15 09:11:53;;;;;;;31.42;16.55;;;1.80;99.90;;;;;;5034582;28;20491;-83
2021/12/15 09:14:20;;;;;;;30.33;14.82;;;1.80;99.90;;;;;;5019227;28;20438;-83
2021/12/15 09:16:50;;;;;;;29.45;13.63;;;1.80;99.90;;;;;;5033422;28;20065;-84
2021/12/15 09:19:16;;;;;;;25.85;13.45;;;1.80;99.90;;;;;;5033291;28;20033;-83
2021/12/15 09:21:42;;;;;;;25.02;12.02;;;1.80;99.90;;;;;;5015329;28;20042;-82
2021/12/15 09:24:10;;;;;;;26.20;13.77;;;1.80;99.90;;;;;;5015537;28;20044;-82
2021/12/15 09:26:36;;;;;;;26.75;13.02;;;1.80;99.90;;;;;;5032903;28;20040;-82
2021/12/15 09:29:04;;;;;;;24.55;12.65;;;1.80;99.90;;;;;;5015498;28;20121;-82
2021/12/15 09:31:30;;;;;;;24.58;12.57;;;1.80;99.90;;;;;;5015407;28;20132;-82
2021/12/15 09:33:59;;;;;;;37.45;17.52;;;1.80;99.90;;;;;;5015524;28;20089;-83
2021/12/15 09:36:25;;;;;;;38.00;17.40;;;1.90;99.90;;;;;;5034485;28;20060;-83
2021/12/15 09:38:55;;;;;;;26.33;14.45;;;1.90;99.90;;;;;;5016269;28;20033;-84
2021/12/15 09:41:23;;;;;;;26.45;13.65;;;2.00;99.90;;;;;;5033596;28;20120;-82
2021/12/15 09:43:52;;;;;;;29.65;13.95;;;2.00;99.90;;;;;;5015320;28;20096;-83
2021/12/15 10:02:55;;;;;;;38.92;16.83;;;1.80;99.90;;;;;;5037214;28;20060;-82
2021/12/15 10:05:36;;;;;;;61.20;26.23;;;1.80;99.90;;;;;;5018756;28;20121;-83
2021/12/15 10:19:29;;;;;;;37.50;15.95;;;1.80;99.90;;;;;;5036356;28;20092;-83
2021/12/15 10:22:26;;;;;;;40.25;16.55;;;1.80;99.90;;;;;;5018126;28;20033;-83
2021/12/15 10:24:56;;;;;;;37.85;15.90;;;1.80;99.90;;;;;;5036011;28;20033;-82
2021/12/15 10:27:50;;;;;;;37.83;15.73;;;1.80;99.90;;;;;;5018395;28;20080;-83
2021/12/15 10:30:21;;;;;;;37.67;16.67;;;1.90;99.90;;;;;;5036153;28;20037;-83
2021/12/15 10:32:49;;;;;;;34.90;16.63;;;1.90;99.90;;;;;;5018311;28;20064;-83
2021/12/15 10:35:18;;;;;;;43.95;16.67;;;1.80;99.90;;;;;;5018230;28;20053;-84
2021/12/15 10:38:19;;;;;;;43.15;17.27;;;1.90;99.90;;;;;;5018175;28;20040;-83
2021/12/15 10:40:50;;;;;;;44.72;16.23;;;1.80;99.90;;;;;;5018028;28;20037;-83
2021/12/15 10:43:16;;;;;;;41.08;16.80;;;1.80;99.90;;;;;;5035726;28;20048;-84
2021/12/15 10:45:54;;;;;;;47.20;17.63;;;1.80;99.90;;;;;;5017706;28;20038;-84
2021/12/15 10:48:45;;;;;;;43.30;18.40;;;1.80;99.90;;;;;;5018025;28;20041;-83
2021/12/15 10:51:49;;;;;;;40.28;17.17;;;1.80;99.90;;;;;;5034716;28;20087;-83
2021/12/15 10:54:19;;;;;;;39.13;15.73;;;1.80;99.90;;;;;;4955536;29;20502;-84
2021/12/15 10:56:53;;;;;;;43.47;16.60;;;1.80;99.90;;;;;;5023676;28;20045;-83
2021/12/15 10:59:21;;;;;;;46.28;19.30;;;1.80;99.90;;;;;;5035546;28;20029;-82
2021/12/15 11:01:47;;;;;;;47.72;20.20;;;1.80;99.90;;;;;;5016380;28;20084;-83
2021/12/15 11:04:41;;;;;;;40.38;18.02;;;1.90;99.90;;;;;;5035205;28;20404;-84
2021/12/15 11:07:32;;;;;;;39.95;16.75;;;1.90;99.90;;;;;;5018057;28;20044;-83
2021/12/15 11:10:06;;;;;;;42.83;16.58;;;1.90;99.90;;;;;;5035292;28;20069;-81
2021/12/15 11:12:45;;;;;;;40.50;16.58;;;1.90;99.90;;;;;;5018264;28;20034;-82
2021/12/15 11:15:15;;;;;;;39.05;16.45;;;1.90;99.90;;;;;;5017939;28;20029;-83
2021/12/15 11:17:45;;;;;;;43.50;17.65;;;2.00;99.90;;;;;;5035602;28;20041;-83
2021/12/15 11:20:35;;;;;;;38.35;16.23;;;1.90;99.90;;;;;;5018841;28;20064;-82
2021/12/15 11:23:07;;;;;;;39.97;17.83;;;1.90;99.90;;;;;;5036900;28;20095;-83
2021/12/15 11:25:43;;;;;;;40.13;18.65;;;1.90;99.90;;;;;;5035456;28;20474;-84
2021/12/15 11:28:17;;;;;;;42.42;17.08;;;1.90;99.90;;;;;;5035601;28;20083;-83
2021/12/15 11:30:43;;;;;;;39.72;16.98;;;1.90;99.90;;;;;;5035410;28;20037;-83
2021/12/15 11:33:16;;;;;;;42.85;18.35;;;2.00;99.90;;;;;;5018657;28;20036;-83
2021/12/15 11:35:48;;;;;;;36.33;16.73;;;2.00;99.90;;;;;;5034774;28;20041;-83
2021/12/15 11:38:18;;;;;;;44.75;18.90;;;1.90;99.90;;;;;;5017783;28;20029;-83
2021/12/15 11:41:00;;;;;;;41.80;17.83;;;1.90;99.90;;;;;;5017272;28;20033;-83
2021/12/15 11:43:29;;;;;;;40.17;18.00;;;1.90;99.90;;;;;;5016863;28;20042;-83
2021/12/15 11:45:55;;;;;;;38.38;17.13;;;1.90;99.90;;;;;;5016932;28;20124;-84
2021/12/15 11:48:25;;;;;;;52.88;19.45;;;1.90;99.90;;;;;;5034743;28;20040;-83
2021/12/15 11:50:54;;;;;;;46.22;17.77;;;1.90;99.90;;;;;;5016729;28;20040;-83
2021/12/15 11:53:31;;;;;;;44.75;17.88;;;1.90;99.90;;;;;;5016470;28;20033;-83
2021/12/15 11:56:18;;;;;;;47.85;19.90;;;1.90;99.90;;;;;;5033117;28;20038;-83
2021/12/15 11:58:45;;;;;;;44.88;19.50;;;1.90;99.90;;;;;;5016405;28;20034;-84
2021/12/15 12:01:42;;;;;;;47.17;19.00;;;1.90;99.90;;;;;;5016326;28;20064;-83
2021/12/15 12:04:22;;;;;;;52.20;19.38;;;1.90;99.90;;;;;;5016224;28;20042;-84
2021/12/15 12:06:52;;;;;;;42.90;16.63;;;1.80;99.90;;;;;;5016571;28;20037;-84
2021/12/15 12:09:20;;;;;;;52.07;18.37;;;1.80;99.90;;;;;;5017112;28;20102;-83
2021/12/15 12:11:52;;;;;;;47.47;18.92;;;1.80;99.90;;;;;;5016621;28;20033;-83
2021/12/15 12:14:39;;;;;;;46.55;18.98;;;1.70;99.90;;;;;;5034079;28;20038;-84
2021/12/15 12:17:12;;;;;;;45.78;18.42;;;1.70;99.90;;;;;;5017143;28;20053;-83
2021/12/15 12:19:42;;;;;;;49.92;18.75;;;1.70;99.90;;;;;;5034298;28;20046;-83
2021/12/15 12:22:10;;;;;;;49.00;17.70;;;1.70;99.90;;;;;;5016365;28;20095;-84
2021/12/15 12:24:37;;;;;;;43.78;16.50;;;1.70;99.90;;;;;;5016153;28;20052;-85
2021/12/15 12:27:03;;;;;;;44.80;16.80;;;1.80;99.90;;;;;;5033264;28;20480;-83
2021/12/15 12:29:30;;;;;;;42.17;17.52;;;1.80;99.90;;;;;;5018134;28;20033;-83
2021/12/15 12:31:56;;;;;;;43.53;17.60;;;1.80;99.90;;;;;;5034721;28;20034;-84
2021/12/15 12:34:22;;;;;;;38.08;15.48;;;1.80;99.90;;;;;;5015681;28;20122;-84
2021/12/15 12:36:48;;;;;;;39.45;17.27;;;1.80;99.90;;;;;;5016173;28;20487;-84
2021/12/15 12:39:17;;;;;;;40.33;17.08;;;1.80;99.90;;;;;;5033559;28;20029;-85
2021/12/15 12:41:46;;;;;;;44.63;17.33;;;1.80;99.90;;;;;;5015673;28;20120;-85
2021/12/15 12:44:20;;;;;;;39.83;17.35;;;1.80;99.90;;;;;;5015657;28;20063;-85
2021/12/15 12:47:00;;;;;;;37.67;15.18;;;1.80;99.90;;;;;;5016691;28;20357;-85
2021/12/15 13:00:45;;;;;;;49.25;21.98;;;1.80;99.90;;;;;;5034954;28;20045;-84
2021/12/15 13:03:28;;;;;;;52.58;23.48;;;1.80;99.90;;;;;;5015798;28;20468;-85
2021/12/15 13:06:17;;;;;;;39.13;16.95;;;1.80;99.90;;;;;;5033015;28;20046;-83
2021/12/15 13:08:44;;;;;;;35.85;15.35;;;1.80;99.90;;;;;;5016158;28;20475;-83
2021/12/15 13:11:19;;;;;;;38.38;16.15;;;1.90;99.90;;;;;;5033690;28;20486;-84
2021/12/15 13:13:54;;;;;;;30.88;15.00;;;1.80;99.90;;;;;;5016441;28;20061;-84
2021/12/15 13:16:52;;;;;;;39.90;17.20;;;1.90;99.90;;;;;;5015436;28;20360;-84
2021/12/15 13:19:39;;;;;;;38.92;16.73;;;1.90;99.90;;;;;;5015062;28;20044;-84
2021/12/15 13:30:47;;;;;;;34.45;14.95;;;1.80;99.90;;;;;;5039164;28;20047;-85
2021/12/15 13:33:18;;;;;;;36.97;15.77;;;1.80;99.90;;;;;;5019506;28;20510;-85
2021/12/15 13:36:01;;;;;;;39.65;17.27;;;1.90;99.90;;;;;;5037101;28;20038;-87
2021/12/15 13:38:36;;;;;;;35.35;15.07;;;1.80;99.90;;;;;;5037052;28;20037;-86
2021/12/15 13:41:09;;;;;;;36.65;15.10;;;1.80;99.90;;;;;;5019349;28;20064;-84
2021/12/15 13:44:16;;;;;;;37.33;15.63;;;1.80;99.90;;;;;;5019299;28;20396;-83
2021/12/15 13:46:57;;;;;;;34.25;13.60;;;1.80;99.90;;;;;;4956457;29;20078;-84
2021/12/15 13:49:42;;;;;;;35.13;14.48;;;1.90;99.90;;;;;;4941363;29;20058;-85
2021/12/15 13:52:31;;;;;;;34.05;14.45;;;1.80;99.90;;;;;;5013925;28;20053;-84
2021/12/15 13:55:35;;;;;;;33.50;14.88;;;1.90;99.90;;;;;;5019325;28;20084;-84
2021/12/15 13:58:09;;;;;;;36.22;14.88;;;1.80;99.90;;;;;;5018764;28;20045;-84
2021/12/15 14:00:50;;;;;;;34.83;14.75;;;1.80;99.90;;;;;;5036513;28;20041;-83
2021/12/15 14:03:45;;;;;;;35.33;16.08;;;1.80;99.90;;;;;;5018988;28;20048;-85
2021/12/15 14:06:18;;;;;;;32.72;14.93;;;1.80;99.90;;;;;;5017993;28;20045;-83
2021/12/15 14:08:56;;;;;;;33.42;14.35;;;1.80;99.90;;;;;;5019369;28;20029;-84
2021/12/15 14:11:32;;;;;;;32.63;14.82;;;1.80;99.90;;;;;;5018716;28;20060;-83
2021/12/15 14:13:59;;;;;;;35.00;13.93;;;1.80;99.90;;;;;;5018319;28;20045;-83
2021/12/15 14:16:39;;;;;;;35.17;13.93;;;1.80;99.90;;;;;;5036226;28;20041;-83
2021/12/15 14:19:08;;;;;;;32.20;14.30;;;1.70;99.90;;;;;;5018154;28;20030;-83
2021/12/15 14:21:36;;;;;;;30.83;13.43;;;1.70;99.90;;;;;;5035824;28;20037;-84
2021/12/15 14:24:02;;;;;;;30.33;14.07;;;1.70;99.90;;;;;;5037054;28;20033;-85
2021/12/15 14:26:33;;;;;;;29.20;13.23;;;1.70;99.90;;;;;;5036932;28;20112;-84
2021/12/15 14:29:02;;;;;;;;;;;1.70;99.90;;;;;;5037046;28;20026;-85
2021/12/15 14:31:31;;;;;;;32.28;13.68;;;1.70;99.90;;;;;;5018003;28;20039;-85
2021/12/15 14:34:01;;;;;;;31.90;13.52;;;1.60;99.90;;;;;;5017769;28;20139;-83
2021/12/15 14:36:32;;;;;;;31.77;14.63;;;1.70;99.90;;;;;;5035462;28;20037;-84
2021/12/15 14:39:14;;;;;;;29.25;13.48;;;1.70;99.90;;;;;;5035884;28;20041;-84